Terminal Aerodrome Forecast
Issued by NWS

Home | Current Version | Previous Version | Text Only | Print | Product List | Glossary On
Versions: 1 2 3 4 5 6 7 8 9 10 11 12
000
FTUS45 KABQ 201100
TAFROW
TAF
KROW 201126Z 2012/2112 18006KT P6SM SCT100 SCT150
     FM202100 19009KT P6SM VCTS SCT070CB BKN130
     FM210100 17008KT P6SM VCSH BKN090
     FM210600 16006KT P6SM SCT100 SCT200=

USA.gov is the U.S. government's official web portal to all federal, state and local government web resources and services.